createdAt,value
2017-03-04T00:00:29.074Z,990.97
2017-03-04T00:01:20.786Z,991.02
2017-03-04T00:02:03.490Z,991.02
2017-03-04T00:02:46.187Z,991.05
2017-03-04T00:03:27.868Z,991.02
2017-03-04T00:04:10.570Z,991.02
2017-03-04T00:04:53.269Z,991.04
2017-03-04T00:05:33.868Z,991.04
2017-03-04T00:06:14.524Z,991.01
2017-03-04T00:06:57.174Z,991.01
2017-03-04T00:07:39.874Z,991.05
2017-03-04T00:08:20.446Z,991.02
2017-03-04T00:09:02.152Z,991.01
2017-03-04T00:09:47.567Z,991.01
2017-03-04T00:10:30.281Z,991.02
2017-03-04T00:11:10.926Z,991
2017-03-04T00:11:56.286Z,990.99
2017-03-04T00:12:37.968Z,990.94
2017-03-04T00:13:29.374Z,990.96
2017-03-04T00:14:14.833Z,990.96
2017-03-04T00:14:55.591Z,991
2017-03-04T00:15:36.345Z,991.01
2017-03-04T00:16:18.024Z,991
2017-03-04T00:16:58.775Z,990.98
2017-03-04T00:17:41.476Z,991.01
2017-03-04T00:18:27.878Z,991.02
2017-03-04T00:19:08.628Z,991
2017-03-04T00:19:54.806Z,991.04
2017-03-04T00:20:35.376Z,991.02
2017-03-04T00:21:21.724Z,991.02
2017-03-04T00:22:02.400Z,991.02
2017-03-04T00:22:42.990Z,991.02
2017-03-04T00:23:23.565Z,991.02
2017-03-04T00:24:04.320Z,990.99
2017-03-04T00:24:46.030Z,990.99
2017-03-04T00:25:26.686Z,990.95
2017-03-04T00:26:18.292Z,990.93
2017-03-04T00:27:01.114Z,990.94
2017-03-04T00:27:41.849Z,990.9
2017-03-04T00:28:23.546Z,990.92
2017-03-04T00:29:04.183Z,990.91
2017-03-04T00:29:44.934Z,990.9
2017-03-04T00:30:25.598Z,990.86
2017-03-04T00:31:06.244Z,990.89
2017-03-04T00:31:46.996Z,990.84
2017-03-04T00:32:38.316Z,990.88
2017-03-04T00:33:18.952Z,990.8
2017-03-04T00:34:04.315Z,990.82
2017-03-04T00:34:44.968Z,990.8
2017-03-04T00:35:25.537Z,990.79
2017-03-04T00:36:06.227Z,990.76
2017-03-04T00:36:51.638Z,990.75
2017-03-04T00:37:33.320Z,990.74
2017-03-04T00:38:13.895Z,990.75
2017-03-04T00:39:07.157Z,990.74
2017-03-04T00:39:47.876Z,990.77
2017-03-04T00:40:28.523Z,990.74
2017-03-04T00:41:09.108Z,990.79
2017-03-04T00:41:49.829Z,990.76
2017-03-04T00:42:30.480Z,990.73
2017-03-04T00:43:11.048Z,990.75
2017-03-04T00:43:53.745Z,990.73
2017-03-04T00:44:35.409Z,990.7
2017-03-04T00:45:15.990Z,990.69
2017-03-04T00:45:58.659Z,990.73
2017-03-04T00:46:40.349Z,990.69
2017-03-04T00:47:21.087Z,990.69
2017-03-04T00:48:06.559Z,990.71
2017-03-04T00:48:47.225Z,990.73
2017-03-04T00:49:27.865Z,990.68
2017-03-04T00:50:15.069Z,990.71
2017-03-04T00:51:11.597Z,990.68
2017-03-04T00:51:52.260Z,990.7
2017-03-04T00:52:33.007Z,990.7
2017-03-04T00:53:13.667Z,990.66
2017-03-04T00:53:54.325Z,990.68
2017-03-04T00:54:34.977Z,990.65
2017-03-04T00:55:15.729Z,990.65
2017-03-04T00:55:56.487Z,990.64
2017-03-04T00:56:37.346Z,990.64
2017-03-04T00:57:18.101Z,990.66
2017-03-04T00:57:58.859Z,990.65
2017-03-04T00:58:39.509Z,990.63
2017-03-04T00:59:20.263Z,990.61
2017-03-04T01:00:01.020Z,990.59
2017-03-04T01:00:41.728Z,990.57
2017-03-04T01:01:22.383Z,990.53
2017-03-04T01:02:03.030Z,990.55
2017-03-04T01:02:43.685Z,990.53
2017-03-04T01:03:24.339Z,990.53
2017-03-04T01:04:04.990Z,990.54
2017-03-04T01:04:45.747Z,990.55
2017-03-04T01:05:26.399Z,990.51
2017-03-04T01:06:07.054Z,990.53
2017-03-04T01:06:47.704Z,990.51
2017-03-04T01:07:28.359Z,990.53
2017-03-04T01:08:09.010Z,990.5
2017-03-04T01:08:49.772Z,990.49
2017-03-04T01:09:30.430Z,990.49
2017-03-04T01:10:11.072Z,990.45
2017-03-04T01:10:51.725Z,990.47
2017-03-04T01:11:32.378Z,990.43
2017-03-04T01:12:13.029Z,990.39
2017-03-04T01:12:53.687Z,990.44
2017-03-04T01:13:34.338Z,990.38
2017-03-04T01:14:14.988Z,990.44
2017-03-04T01:14:55.641Z,990.37
2017-03-04T01:15:36.213Z,990.38
2017-03-04T01:16:16.908Z,990.4
2017-03-04T01:16:57.603Z,990.34
2017-03-04T01:17:38.256Z,990.35
2017-03-04T01:18:18.835Z,990.34
2017-03-04T01:18:59.533Z,990.29
2017-03-04T01:19:40.204Z,990.31
2017-03-04T01:20:20.867Z,990.31
2017-03-04T01:21:01.524Z,990.31
2017-03-04T01:21:42.172Z,990.27
2017-03-04T01:22:22.826Z,990.31
2017-03-04T01:23:03.457Z,990.31
2017-03-04T01:23:44.129Z,990.3
2017-03-04T01:24:24.785Z,990.31
2017-03-04T01:25:05.444Z,990.34
2017-03-04T01:25:46.019Z,990.31
2017-03-04T01:26:26.716Z,990.28
2017-03-04T01:27:07.389Z,990.28
2017-03-04T01:27:48.052Z,990.27
2017-03-04T01:28:28.634Z,990.29
2017-03-04T01:29:09.311Z,990.34
2017-03-04T01:29:50.024Z,990.3
2017-03-04T01:30:30.661Z,990.32
2017-03-04T01:31:11.247Z,990.31
2017-03-04T01:31:52.947Z,990.29
2017-03-04T01:32:33.668Z,990.33
2017-03-04T01:33:14.757Z,990.27
2017-03-04T01:33:55.329Z,990.3
2017-03-04T01:34:36.040Z,990.31
2017-03-04T01:35:16.838Z,990.27
2017-03-04T01:35:57.569Z,990.28
2017-03-04T01:36:38.326Z,990.25
2017-03-04T01:37:19.085Z,990.23
2017-03-04T01:37:59.847Z,990.22
2017-03-04T01:38:40.597Z,990.23
2017-03-04T01:39:21.358Z,990.19
2017-03-04T01:40:02.115Z,990.21
2017-03-04T01:40:42.676Z,990.18
2017-03-04T01:41:23.383Z,990.2
2017-03-04T01:42:04.082Z,990.2
2017-03-04T01:42:44.823Z,990.2
2017-03-04T01:43:25.390Z,990.2
2017-03-04T01:44:06.088Z,990.19
2017-03-04T01:44:46.785Z,990.22
2017-03-04T01:45:27.541Z,990.22
2017-03-04T01:46:08.105Z,990.23
2017-03-04T01:46:48.783Z,990.24
2017-03-04T01:47:29.492Z,990.2
2017-03-04T01:48:10.255Z,990.23
2017-03-04T01:48:50.818Z,990.24
2017-03-04T01:49:31.523Z,990.2
2017-03-04T01:50:12.214Z,990.18
2017-03-04T01:50:52.963Z,990.2
2017-03-04T01:51:33.723Z,990.21
2017-03-04T01:52:14.475Z,990.26
2017-03-04T01:52:55.228Z,990.25
2017-03-04T01:53:35.986Z,990.23
2017-03-04T01:54:16.744Z,990.24
2017-03-04T01:54:57.492Z,990.22
2017-03-04T01:55:38.250Z,990.26
2017-03-04T01:56:19.012Z,990.2
2017-03-04T01:56:59.761Z,990.18
2017-03-04T01:57:40.521Z,990.18
2017-03-04T01:58:21.277Z,990.18
2017-03-04T01:59:02.023Z,990.11
2017-03-04T01:59:42.787Z,990.15
2017-03-04T02:00:23.543Z,990.13
2017-03-04T02:01:04.104Z,990.14
2017-03-04T02:01:44.806Z,990.13
2017-03-04T02:02:25.494Z,990.14
2017-03-04T02:03:06.254Z,990.14
2017-03-04T02:03:46.819Z,990.17
2017-03-04T02:04:27.522Z,990.13
2017-03-04T02:05:08.208Z,990.14
2017-03-04T02:05:48.982Z,990.14
2017-03-04T02:06:29.735Z,990.15
2017-03-04T02:07:10.474Z,990.14
2017-03-04T02:07:51.238Z,990.12
2017-03-04T02:08:31.998Z,990.08
2017-03-04T02:09:13.777Z,990.09
2017-03-04T02:09:54.534Z,990.03
2017-03-04T02:10:35.285Z,990.02
2017-03-04T02:11:16.046Z,989.98
2017-03-04T02:11:58.720Z,989.99
2017-03-04T02:12:39.475Z,989.96
2017-03-04T02:13:20.233Z,989.97
2017-03-04T02:14:00.986Z,989.97
2017-03-04T02:14:54.337Z,989.98
2017-03-04T02:15:40.827Z,989.93
2017-03-04T02:16:21.399Z,989.95
2017-03-04T02:17:02.115Z,989.92
2017-03-04T02:17:42.785Z,989.92
2017-03-04T02:18:23.542Z,989.89
2017-03-04T02:19:04.117Z,989.87
2017-03-04T02:19:45.813Z,989.88
2017-03-04T02:20:28.568Z,989.85
2017-03-04T02:21:09.223Z,989.84
2017-03-04T02:22:01.857Z,989.83
2017-03-04T02:22:43.641Z,989.8
2017-03-04T02:23:25.417Z,989.82
2017-03-04T02:24:07.018Z,989.8
2017-03-04T02:24:59.420Z,989.85
2017-03-04T02:25:41.198Z,989.81
2017-03-04T02:26:21.958Z,989.83
2017-03-04T02:27:09.375Z,989.79
2017-03-04T02:27:50.139Z,989.77
2017-03-04T02:28:30.879Z,989.76
2017-03-04T02:29:16.346Z,989.75
2017-03-04T02:29:59.049Z,989.72
2017-03-04T02:30:39.801Z,989.76
2017-03-04T02:31:22.501Z,989.72
2017-03-04T02:32:03.263Z,989.73
2017-03-04T02:32:45.041Z,989.72
2017-03-04T02:33:40.356Z,989.73
2017-03-04T02:34:25.612Z,989.72
2017-03-04T02:35:06.365Z,989.7
2017-03-04T02:35:47.109Z,989.71
2017-03-04T02:36:27.800Z,989.75
2017-03-04T02:37:08.452Z,989.68
2017-03-04T02:37:49.107Z,989.72
2017-03-04T02:38:30.791Z,989.71
2017-03-04T02:39:11.437Z,989.71
2017-03-04T02:39:52.131Z,989.73
2017-03-04T02:40:32.759Z,989.69
2017-03-04T02:41:14.424Z,989.7
2017-03-04T02:41:55.002Z,989.69
2017-03-04T02:42:35.699Z,989.72
2017-03-04T02:43:21.118Z,989.7
2017-03-04T02:44:01.747Z,989.68
2017-03-04T02:44:42.341Z,989.64
2017-03-04T02:45:23.022Z,989.68
2017-03-04T02:46:04.747Z,989.62
2017-03-04T02:46:50.294Z,989.62
2017-03-04T02:47:30.858Z,989.65
2017-03-04T02:48:11.542Z,989.61
2017-03-04T02:48:52.152Z,989.6
2017-03-04T02:49:32.726Z,989.62
2017-03-04T02:50:13.365Z,989.64
2017-03-04T02:50:54.011Z,989.6
2017-03-04T02:51:34.570Z,989.58
2017-03-04T02:52:15.268Z,989.59
2017-03-04T02:52:55.967Z,989.57
2017-03-04T02:53:38.779Z,989.55
2017-03-04T02:54:19.348Z,989.52
2017-03-04T02:55:00.041Z,989.51
2017-03-04T02:55:41.750Z,989.53
2017-03-04T02:56:24.455Z,989.53
2017-03-04T02:57:05.028Z,989.52
2017-03-04T02:57:45.716Z,989.51
2017-03-04T02:58:26.417Z,989.52
2017-03-04T02:59:07.070Z,989.51
2017-03-04T02:59:47.637Z,989.53
2017-03-04T03:00:28.336Z,989.52
2017-03-04T03:01:09.022Z,989.53
2017-03-04T03:01:49.678Z,989.53
2017-03-04T03:02:30.331Z,989.52
2017-03-04T03:03:10.986Z,989.52
2017-03-04T03:03:51.639Z,989.51
2017-03-04T03:04:32.291Z,989.55
2017-03-04T03:05:12.948Z,989.53
2017-03-04T03:05:53.596Z,989.55
2017-03-04T03:06:35.273Z,989.55
2017-03-04T03:07:15.929Z,989.55
2017-03-04T03:07:56.661Z,989.59
2017-03-04T03:08:37.400Z,989.57
2017-03-04T03:09:24.916Z,989.58
2017-03-04T03:10:05.677Z,989.58
2017-03-04T03:10:46.235Z,989.59
2017-03-04T03:11:33.800Z,989.58
2017-03-04T03:12:15.516Z,989.55
2017-03-04T03:12:56.267Z,989.54
2017-03-04T03:13:36.830Z,989.52
2017-03-04T03:14:17.501Z,989.53
2017-03-04T03:14:58.200Z,989.52
2017-03-04T03:15:38.857Z,989.51
2017-03-04T03:16:19.611Z,989.54
2017-03-04T03:17:00.268Z,989.52
2017-03-04T03:17:40.918Z,989.48
2017-03-04T03:18:21.671Z,989.5
2017-03-04T03:19:02.428Z,989.53
2017-03-04T03:19:43.183Z,989.5
2017-03-04T03:20:23.835Z,989.52
2017-03-04T03:21:04.456Z,989.54
2017-03-04T03:21:45.215Z,989.51
2017-03-04T03:22:25.899Z,989.53
2017-03-04T03:23:06.651Z,989.52
2017-03-04T03:23:47.225Z,989.54
2017-03-04T03:24:27.957Z,989.53
2017-03-04T03:25:08.613Z,989.53
2017-03-04T03:25:49.366Z,989.58
2017-03-04T03:26:30.061Z,989.55
2017-03-04T03:27:10.775Z,989.54
2017-03-04T03:27:51.526Z,989.56
2017-03-04T03:28:32.285Z,989.55
2017-03-04T03:29:13.041Z,989.55
2017-03-04T03:29:53.808Z,989.59
2017-03-04T03:30:34.566Z,989.56
2017-03-04T03:31:15.316Z,989.55
2017-03-04T03:31:56.065Z,989.59
2017-03-04T03:32:36.820Z,989.53
2017-03-04T03:33:17.570Z,989.55
2017-03-04T03:33:58.330Z,989.55
2017-03-04T03:34:39.085Z,989.54
2017-03-04T03:35:19.739Z,989.49
2017-03-04T03:36:00.320Z,989.5
2017-03-04T03:36:41.040Z,989.48
2017-03-04T03:37:21.797Z,989.52
2017-03-04T03:38:02.366Z,989.5
2017-03-04T03:38:43.097Z,989.49
2017-03-04T03:39:23.673Z,989.5
2017-03-04T03:40:04.276Z,989.5
2017-03-04T03:40:44.960Z,989.48
2017-03-04T03:41:25.720Z,989.47
2017-03-04T03:42:06.471Z,989.47
2017-03-04T03:42:47.227Z,989.46
2017-03-04T03:43:27.982Z,989.46
2017-03-04T03:44:08.742Z,989.42
2017-03-04T03:44:49.492Z,989.42
2017-03-04T03:45:30.248Z,989.42
2017-03-04T03:46:10.814Z,989.4
2017-03-04T03:46:51.553Z,989.4
2017-03-04T03:47:32.308Z,989.4
2017-03-04T03:48:12.878Z,989.42
2017-03-04T03:48:53.613Z,989.4
2017-03-04T03:49:34.370Z,989.4
2017-03-04T03:50:14.950Z,989.4
2017-03-04T03:50:55.688Z,989.35
2017-03-04T03:51:36.435Z,989.35
2017-03-04T03:52:17.201Z,989.34
2017-03-04T03:52:57.944Z,989.33
2017-03-04T03:53:38.696Z,989.3
2017-03-04T03:54:19.459Z,989.31
2017-03-04T03:55:00.212Z,989.33
2017-03-04T03:55:40.959Z,989.31
2017-03-04T03:56:21.615Z,989.34
2017-03-04T03:57:02.181Z,989.29
2017-03-04T03:57:43.901Z,989.31
2017-03-04T03:58:24.703Z,989.3
2017-03-04T03:59:05.461Z,989.3
2017-03-04T03:59:46.034Z,989.31
2017-03-04T04:00:26.734Z,989.32
2017-03-04T04:01:07.428Z,989.31
2017-03-04T04:01:48.172Z,989.31
2017-03-04T04:02:28.930Z,989.32
2017-03-04T04:03:09.691Z,989.32
2017-03-04T04:03:50.440Z,989.34
2017-03-04T04:04:31.197Z,989.36
2017-03-04T04:05:11.957Z,989.33
2017-03-04T04:05:52.703Z,989.3
2017-03-04T04:06:33.460Z,989.31
2017-03-04T04:07:14.213Z,989.31
2017-03-04T04:07:54.970Z,989.29
2017-03-04T04:08:35.733Z,989.27
2017-03-04T04:09:16.483Z,989.28
2017-03-04T04:09:57.239Z,989.29
2017-03-04T04:10:37.998Z,989.28
2017-03-04T04:11:18.576Z,989.3
2017-03-04T04:11:59.250Z,989.28
2017-03-04T04:12:39.957Z,989.26
2017-03-04T04:13:20.706Z,989.21
2017-03-04T04:14:01.299Z,989.24
2017-03-04T04:14:41.989Z,989.21
2017-03-04T04:15:22.655Z,989.24
2017-03-04T04:16:03.424Z,989.17
2017-03-04T04:16:44.011Z,989.17
2017-03-04T04:17:24.780Z,989.19
2017-03-04T04:18:05.474Z,989.13
2017-03-04T04:18:46.247Z,989.13
2017-03-04T04:19:26.824Z,989.15
2017-03-04T04:20:07.494Z,989.14
2017-03-04T04:20:48.191Z,989.16
2017-03-04T04:21:28.955Z,989.19
2017-03-04T04:22:09.714Z,989.19
2017-03-04T04:22:50.465Z,989.25
2017-03-04T04:23:31.223Z,989.23
2017-03-04T04:24:11.975Z,989.2
2017-03-04T04:24:52.730Z,989.2
2017-03-04T04:25:33.487Z,989.2
2017-03-04T04:26:14.264Z,989.24
2017-03-04T04:26:54.995Z,989.21
2017-03-04T04:27:35.752Z,989.19
2017-03-04T04:28:16.407Z,989.2
2017-03-04T04:28:57.158Z,989.23
2017-03-04T04:29:37.915Z,989.21
2017-03-04T04:30:18.672Z,989.24
2017-03-04T04:30:59.232Z,989.22
2017-03-04T04:31:39.976Z,989.21
2017-03-04T04:32:20.733Z,989.2
2017-03-04T04:33:01.304Z,989.25
2017-03-04T04:33:42.063Z,989.22
2017-03-04T04:34:22.798Z,989.22
2017-03-04T04:35:03.365Z,989.27
2017-03-04T04:35:44.098Z,989.3
2017-03-04T04:36:24.859Z,989.27
2017-03-04T04:37:05.428Z,989.28
2017-03-04T04:37:46.126Z,989.26
2017-03-04T04:38:26.716Z,989.24
2017-03-04T04:39:07.464Z,989.26
2017-03-04T04:39:48.046Z,989.25
2017-03-04T04:40:28.739Z,989.25
2017-03-04T04:41:09.531Z,989.26
2017-03-04T04:41:50.290Z,989.23
2017-03-04T04:42:31.054Z,989.26
2017-03-04T04:43:11.829Z,989.26
2017-03-04T04:43:52.553Z,989.27
2017-03-04T04:44:33.301Z,989.23
2017-03-04T04:45:14.076Z,989.26
2017-03-04T04:45:54.819Z,989.26
2017-03-04T04:46:35.568Z,989.27
2017-03-04T04:47:16.324Z,989.23
2017-03-04T04:47:57.090Z,989.26
2017-03-04T04:48:37.743Z,989.22
2017-03-04T04:49:18.486Z,989.21
2017-03-04T04:50:00.171Z,989.21
2017-03-04T04:50:40.926Z,989.19
2017-03-04T04:51:21.685Z,989.17
2017-03-04T04:52:02.436Z,989.17
2017-03-04T04:52:43.191Z,989.14
2017-03-04T04:53:23.844Z,989.18
2017-03-04T04:54:04.596Z,989.14
2017-03-04T04:54:45.354Z,989.15
2017-03-04T04:55:26.109Z,989.14
2017-03-04T04:56:06.865Z,989.06
2017-03-04T04:56:47.620Z,989.1
2017-03-04T04:57:28.184Z,989.08
2017-03-04T04:58:08.874Z,989.06
2017-03-04T04:58:49.585Z,989.05
2017-03-04T04:59:30.332Z,989.02
2017-03-04T05:00:10.921Z,989.03
2017-03-04T05:00:51.693Z,989
2017-03-04T05:01:32.400Z,988.98
2017-03-04T05:02:12.984Z,988.97
2017-03-04T05:02:54.638Z,988.97
2017-03-04T05:03:35.376Z,988.97
2017-03-04T05:04:16.132Z,988.97
2017-03-04T05:04:58.220Z,988.93
2017-03-04T05:05:38.970Z,988.94
2017-03-04T05:06:19.734Z,988.94
2017-03-04T05:07:00.481Z,988.95
2017-03-04T05:07:41.244Z,988.89
2017-03-04T05:08:21.993Z,988.93
2017-03-04T05:09:02.747Z,988.91
2017-03-04T05:09:43.502Z,988.91
2017-03-04T05:10:24.272Z,988.92
2017-03-04T05:11:05.013Z,988.91
2017-03-04T05:11:45.769Z,988.9
2017-03-04T05:12:26.537Z,988.91
2017-03-04T05:13:07.288Z,988.86
2017-03-04T05:13:48.039Z,988.9
2017-03-04T05:14:28.799Z,988.87
2017-03-04T05:15:09.546Z,988.88
2017-03-04T05:15:50.200Z,988.87
2017-03-04T05:16:30.957Z,988.89
2017-03-04T05:17:11.715Z,988.87
2017-03-04T05:17:52.467Z,988.89
2017-03-04T05:18:33.223Z,988.84
2017-03-04T05:19:13.982Z,988.83
2017-03-04T05:19:54.734Z,988.83
2017-03-04T05:20:35.493Z,988.78
2017-03-04T05:21:16.247Z,988.78
2017-03-04T05:21:57.010Z,988.76
2017-03-04T05:22:37.758Z,988.7
2017-03-04T05:23:18.406Z,988.73
2017-03-04T05:23:59.162Z,988.71
2017-03-04T05:24:39.918Z,988.68
2017-03-04T05:25:20.673Z,988.7
2017-03-04T05:26:01.428Z,988.74
2017-03-04T05:26:42.011Z,988.75
2017-03-04T05:27:22.792Z,988.75
2017-03-04T05:28:03.487Z,988.75
2017-03-04T05:28:44.248Z,988.75
2017-03-04T05:29:24.825Z,988.74
2017-03-04T05:30:05.607Z,988.73
2017-03-04T05:30:46.327Z,988.73
2017-03-04T05:31:27.070Z,988.74
2017-03-04T05:32:07.709Z,988.76
2017-03-04T05:32:48.469Z,988.75
2017-03-04T05:33:29.228Z,988.74
2017-03-04T05:34:09.982Z,988.76
2017-03-04T05:34:50.739Z,988.77
2017-03-04T05:35:31.512Z,988.75
2017-03-04T05:36:12.267Z,988.73
2017-03-04T05:36:52.822Z,988.75
2017-03-04T05:37:33.625Z,988.78
2017-03-04T05:38:14.409Z,988.76
2017-03-04T05:38:55.167Z,988.77
2017-03-04T05:39:35.743Z,988.72
2017-03-04T05:40:16.527Z,988.7
2017-03-04T05:40:57.228Z,988.72
2017-03-04T05:41:37.877Z,988.73
2017-03-04T05:42:18.636Z,988.72
2017-03-04T05:42:59.296Z,988.64
2017-03-04T05:43:39.942Z,988.63
2017-03-04T05:44:20.591Z,988.6
2017-03-04T05:45:01.247Z,988.65
2017-03-04T05:45:41.829Z,988.6
2017-03-04T05:46:22.539Z,988.62
2017-03-04T05:47:03.207Z,988.66
2017-03-04T05:47:43.861Z,988.67
2017-03-04T05:48:24.443Z,988.65
2017-03-04T05:49:05.117Z,988.69
2017-03-04T05:49:45.716Z,988.66
2017-03-04T05:50:26.368Z,988.7
2017-03-04T05:51:06.951Z,988.67
2017-03-04T05:51:47.618Z,988.72
2017-03-04T05:52:28.263Z,988.64
2017-03-04T05:53:08.940Z,988.64
2017-03-04T05:53:49.597Z,988.67
2017-03-04T05:54:30.239Z,988.69
2017-03-04T05:55:10.909Z,988.7
2017-03-04T05:55:51.556Z,988.72
2017-03-04T05:56:33.237Z,988.67
2017-03-04T05:57:13.927Z,988.61
2017-03-04T05:57:54.580Z,988.63
2017-03-04T05:58:35.152Z,988.65
2017-03-04T05:59:15.834Z,988.67
2017-03-04T05:59:56.426Z,988.69
2017-03-04T06:00:37.091Z,988.68
2017-03-04T06:01:17.663Z,988.72
2017-03-04T06:01:58.350Z,988.7
2017-03-04T06:02:38.999Z,988.74
2017-03-04T06:03:19.690Z,988.72
2017-03-04T06:04:00.356Z,988.72
2017-03-04T06:04:41.014Z,988.73
2017-03-04T06:05:21.580Z,988.71
2017-03-04T06:06:02.203Z,988.68
2017-03-04T06:06:42.863Z,988.7
2017-03-04T06:07:23.464Z,988.74
2017-03-04T06:08:04.082Z,988.69
2017-03-04T06:08:44.616Z,988.75
2017-03-04T06:09:25.215Z,988.71
2017-03-04T06:10:05.820Z,988.69
2017-03-04T06:10:46.474Z,988.72
2017-03-04T06:11:27.047Z,988.75
2017-03-04T06:12:07.726Z,988.68
2017-03-04T06:12:48.380Z,988.68
2017-03-04T06:13:29.043Z,988.69
2017-03-04T06:14:09.685Z,988.7
2017-03-04T06:14:50.340Z,988.71
2017-03-04T06:15:30.998Z,988.67
2017-03-04T06:16:11.675Z,988.72
2017-03-04T06:16:52.366Z,988.72
2017-03-04T06:17:33.004Z,988.71
2017-03-04T06:18:13.576Z,988.68
2017-03-04T06:18:54.273Z,988.71
2017-03-04T06:19:34.986Z,988.7
2017-03-04T06:20:16.022Z,988.72
2017-03-04T06:20:56.577Z,988.73
2017-03-04T06:21:37.273Z,988.72
2017-03-04T06:22:17.953Z,988.75
2017-03-04T06:22:58.531Z,988.72
2017-03-04T06:23:39.178Z,988.73
2017-03-04T06:24:19.838Z,988.69
2017-03-04T06:25:00.397Z,988.71
2017-03-04T06:25:41.062Z,988.73
2017-03-04T06:26:21.696Z,988.69
2017-03-04T06:27:02.267Z,988.72
2017-03-04T06:27:43.044Z,988.73
2017-03-04T06:28:23.740Z,988.75
2017-03-04T06:29:04.408Z,988.77
2017-03-04T06:29:45.064Z,988.77
2017-03-04T06:30:25.713Z,988.78
2017-03-04T06:31:06.366Z,988.77
2017-03-04T06:31:47.026Z,988.79
2017-03-04T06:32:27.677Z,988.74
2017-03-04T06:33:08.322Z,988.76
2017-03-04T06:33:48.988Z,988.76
2017-03-04T06:34:29.635Z,988.77
2017-03-04T06:35:10.293Z,988.79
2017-03-04T06:35:50.938Z,988.78
2017-03-04T06:36:31.510Z,988.83
2017-03-04T06:37:12.140Z,988.79
2017-03-04T06:37:52.814Z,988.76
2017-03-04T06:38:33.384Z,988.8
2017-03-04T06:39:14.014Z,988.8
2017-03-04T06:39:55.687Z,988.8
2017-03-04T06:40:36.274Z,988.81
2017-03-04T06:41:16.977Z,988.83
2017-03-04T06:41:57.631Z,988.79
2017-03-04T06:42:38.285Z,988.81
2017-03-04T06:43:18.964Z,988.85
2017-03-04T06:43:59.591Z,988.79
2017-03-04T06:44:40.244Z,988.84
2017-03-04T06:45:20.903Z,988.85
2017-03-04T06:46:01.568Z,988.83
2017-03-04T06:46:42.202Z,988.85
2017-03-04T06:47:22.760Z,988.86
2017-03-04T06:48:03.367Z,988.84
2017-03-04T06:48:44.059Z,988.86
2017-03-04T06:49:24.715Z,988.87
2017-03-04T06:50:05.282Z,988.85
2017-03-04T06:50:46.105Z,988.87
2017-03-04T06:51:26.694Z,988.83
2017-03-04T06:52:07.405Z,988.87
2017-03-04T06:52:48.144Z,988.86
2017-03-04T06:53:28.787Z,988.88
2017-03-04T06:54:09.456Z,988.9
2017-03-04T06:54:50.095Z,988.85
2017-03-04T06:55:30.806Z,988.86
2017-03-04T06:56:11.451Z,988.86
2017-03-04T06:56:52.113Z,988.89
2017-03-04T06:57:32.695Z,988.88
2017-03-04T06:58:13.381Z,988.86
2017-03-04T06:58:54.078Z,988.84
2017-03-04T06:59:34.715Z,988.85
2017-03-04T07:00:15.284Z,988.86
2017-03-04T07:00:55.969Z,988.83
2017-03-04T07:01:36.692Z,988.87
2017-03-04T07:02:17.427Z,988.87
2017-03-04T07:02:57.995Z,988.88
2017-03-04T07:03:38.689Z,988.83
2017-03-04T07:04:19.385Z,988.83
2017-03-04T07:04:59.990Z,988.81
2017-03-04T07:05:40.565Z,988.86
2017-03-04T07:06:21.244Z,988.82
2017-03-04T07:07:01.853Z,988.8
2017-03-04T07:07:42.503Z,988.8
2017-03-04T07:08:23.203Z,988.82
2017-03-04T07:09:03.855Z,988.8
2017-03-04T07:09:44.483Z,988.79
2017-03-04T07:10:25.126Z,988.75
2017-03-04T07:11:05.844Z,988.79
2017-03-04T07:11:46.467Z,988.75
2017-03-04T07:12:27.094Z,988.73
2017-03-04T07:13:07.746Z,988.7
2017-03-04T07:13:48.452Z,988.69
2017-03-04T07:14:29.086Z,988.68
2017-03-04T07:15:09.663Z,988.71
2017-03-04T07:15:50.367Z,988.63
2017-03-04T07:16:30.951Z,988.66
2017-03-04T07:17:11.605Z,988.66
2017-03-04T07:17:52.183Z,988.68
2017-03-04T07:18:32.800Z,988.66
2017-03-04T07:19:13.443Z,988.69
2017-03-04T07:19:54.031Z,988.66
2017-03-04T07:20:34.676Z,988.68
2017-03-04T07:21:15.303Z,988.71
2017-03-04T07:21:55.855Z,988.67
2017-03-04T07:22:36.587Z,988.67
2017-03-04T07:23:17.319Z,988.67
2017-03-04T07:23:58.027Z,988.7
2017-03-04T07:24:38.605Z,988.68
2017-03-04T07:25:19.295Z,988.7
2017-03-04T07:25:59.971Z,988.71
2017-03-04T07:26:40.635Z,988.7
2017-03-04T07:27:21.284Z,988.7
2017-03-04T07:28:02.044Z,988.71
2017-03-04T07:28:42.690Z,988.7
2017-03-04T07:29:23.348Z,988.71
2017-03-04T07:30:04.011Z,988.71
2017-03-04T07:30:44.655Z,988.76
2017-03-04T07:31:25.254Z,988.73
2017-03-04T07:32:05.972Z,988.78
2017-03-04T07:32:46.610Z,988.73
2017-03-04T07:33:27.167Z,988.75
2017-03-04T07:34:07.816Z,988.74
2017-03-04T07:34:48.467Z,988.72
2017-03-04T07:35:29.032Z,988.71
2017-03-04T07:36:09.779Z,988.69
2017-03-04T07:36:50.424Z,988.68
2017-03-04T07:37:30.983Z,988.68
2017-03-04T07:38:11.674Z,988.67
2017-03-04T07:38:52.378Z,988.64
2017-03-04T07:39:32.972Z,988.62
2017-03-04T07:40:13.698Z,988.62
2017-03-04T07:40:54.343Z,988.63
2017-03-04T07:41:34.907Z,988.6
2017-03-04T07:42:15.540Z,988.6
2017-03-04T07:42:57.214Z,988.54
2017-03-04T07:43:37.889Z,988.55
2017-03-04T07:44:18.528Z,988.53
2017-03-04T07:44:59.179Z,988.57
2017-03-04T07:45:39.755Z,988.56
2017-03-04T07:46:20.351Z,988.55
2017-03-04T07:47:01.109Z,988.55
2017-03-04T07:47:41.668Z,988.53
2017-03-04T07:48:23.441Z,988.52
2017-03-04T07:49:04.200Z,988.49
2017-03-04T07:49:44.765Z,988.45
2017-03-04T07:50:30.233Z,988.42
2017-03-04T07:51:11.995Z,988.46
2017-03-04T07:51:58.481Z,988.45
2017-03-04T07:52:39.236Z,988.44
2017-03-04T07:53:20.005Z,988.45
2017-03-04T07:54:00.749Z,988.43
2017-03-04T07:54:41.505Z,988.46
2017-03-04T07:55:22.255Z,988.47
2017-03-04T07:56:04.034Z,988.45
2017-03-04T07:56:44.788Z,988.46
2017-03-04T07:57:25.444Z,988.48
2017-03-04T07:58:07.120Z,988.46
2017-03-04T07:58:48.801Z,988.46
2017-03-04T07:59:29.451Z,988.46
2017-03-04T08:00:10.106Z,988.46
2017-03-04T08:00:50.761Z,988.47
2017-03-04T08:01:31.411Z,988.51
2017-03-04T08:02:12.062Z,988.49
2017-03-04T08:02:52.718Z,988.49
2017-03-04T08:03:33.366Z,988.49
2017-03-04T08:04:14.019Z,988.5
2017-03-04T08:04:54.673Z,988.49
2017-03-04T08:05:35.326Z,988.49
2017-03-04T08:06:15.978Z,988.5
2017-03-04T08:06:56.549Z,988.51
2017-03-04T08:07:37.183Z,988.55
2017-03-04T08:08:17.839Z,988.52
2017-03-04T08:08:58.407Z,988.52
2017-03-04T08:09:39.041Z,988.51
2017-03-04T08:10:19.694Z,988.53
2017-03-04T08:11:00.297Z,988.57
2017-03-04T08:11:40.997Z,988.53
2017-03-04T08:12:21.658Z,988.48
2017-03-04T08:13:02.234Z,988.51
2017-03-04T08:13:47.569Z,988.5
2017-03-04T08:14:28.233Z,988.51
2017-03-04T08:15:08.790Z,988.53
2017-03-04T08:15:50.476Z,988.55
2017-03-04T08:16:31.101Z,988.52
2017-03-04T08:17:11.680Z,988.48
2017-03-04T08:17:57.203Z,988.55
2017-03-04T08:18:37.872Z,988.53
2017-03-04T08:19:18.526Z,988.54
2017-03-04T08:19:59.091Z,988.53
2017-03-04T08:20:39.684Z,988.56
2017-03-04T08:21:20.359Z,988.57
2017-03-04T08:22:01.961Z,988.56
2017-03-04T08:22:42.609Z,988.58
2017-03-04T08:23:23.262Z,988.6
2017-03-04T08:24:03.933Z,988.57
2017-03-04T08:24:44.569Z,988.55
2017-03-04T08:25:26.242Z,988.6
2017-03-04T08:26:06.924Z,988.59
2017-03-04T08:26:47.549Z,988.57
2017-03-04T08:27:28.207Z,988.55
2017-03-04T08:28:08.854Z,988.55
2017-03-04T08:28:49.513Z,988.57
2017-03-04T08:29:32.106Z,988.63
2017-03-04T08:30:12.886Z,988.62
2017-03-04T08:30:53.628Z,988.59
2017-03-04T08:31:34.284Z,988.57
2017-03-04T08:32:14.922Z,988.57
2017-03-04T08:32:55.512Z,988.59
2017-03-04T08:33:36.192Z,988.59
2017-03-04T08:34:17.817Z,988.58
2017-03-04T08:34:59.491Z,988.58